createdAt,value
2016-04-18T00:00:07.255Z,1013.31
2016-04-18T00:01:07.273Z,1013.37
2016-04-18T00:02:07.307Z,1013.37
2016-04-18T00:03:07.341Z,1013.39
2016-04-18T00:04:07.375Z,1013.38
2016-04-18T00:05:07.394Z,1013.39
2016-04-18T00:06:07.428Z,1013.41
2016-04-18T00:07:07.446Z,1013.42
2016-04-18T00:08:07.480Z,1013.43
2016-04-18T00:09:07.498Z,1013.41
2016-04-18T00:10:07.548Z,1013.37
2016-04-18T00:11:07.550Z,1013.33
2016-04-18T00:12:07.584Z,1013.32
2016-04-18T00:13:07.617Z,1013.28
2016-04-18T00:14:07.636Z,1013.26
2016-04-18T00:15:07.691Z,1013.27
2016-04-18T00:16:07.752Z,1013.28
2016-04-18T00:17:07.829Z,1013.21
2016-04-18T00:18:07.906Z,1013.18
2016-04-18T00:19:07.968Z,1013.13
2016-04-18T00:20:08.031Z,1013.17
2016-04-18T00:21:08.065Z,1013.22
2016-04-18T00:22:08.114Z,1013.24
2016-04-18T00:23:08.148Z,1013.26
2016-04-18T00:24:08.229Z,1013.29
2016-04-18T00:25:08.227Z,1013.32
2016-04-18T00:26:08.282Z,1013.3
2016-04-18T00:27:08.306Z,1013.27
2016-04-18T00:28:08.330Z,1013.26
2016-04-18T00:29:08.370Z,1013.25
2016-04-18T00:30:08.392Z,1013.27
2016-04-18T00:31:08.444Z,1013.29
2016-04-18T00:32:08.494Z,1013.29
2016-04-18T00:33:08.484Z,1013.32
2016-04-18T00:34:08.519Z,1013.32
2016-04-18T00:35:08.539Z,1013.31
2016-04-18T00:36:08.574Z,1013.35
2016-04-18T00:37:08.608Z,1013.41
2016-04-18T00:38:08.628Z,1013.42
2016-04-18T00:39:08.662Z,1013.44
2016-04-18T00:40:08.681Z,1013.48
2016-04-18T00:41:08.715Z,1013.57
2016-04-18T00:42:08.750Z,1013.58
2016-04-18T00:43:08.769Z,1013.61
2016-04-18T00:44:08.803Z,1013.59
2016-04-18T00:45:08.822Z,1013.62
2016-04-18T00:46:08.855Z,1013.67
2016-04-18T00:47:08.874Z,1013.7
2016-04-18T00:48:08.907Z,1013.67
2016-04-18T00:49:08.942Z,1013.72
2016-04-18T00:50:08.961Z,1013.63
2016-04-18T00:51:08.978Z,1013.64
2016-04-18T00:52:09.028Z,1013.75
2016-04-18T00:53:09.046Z,1013.75
2016-04-18T00:54:09.064Z,1013.79
2016-04-18T00:55:09.099Z,1013.8
2016-04-18T00:56:09.133Z,1013.81
2016-04-18T00:57:09.151Z,1013.82
2016-04-18T00:58:09.185Z,1013.8
2016-04-18T00:59:09.235Z,1013.8
2016-04-18T01:00:09.238Z,1013.8
2016-04-18T01:01:09.255Z,1013.8
2016-04-18T01:02:09.305Z,1013.79
2016-04-18T01:03:09.323Z,1013.7
2016-04-18T01:04:09.341Z,1013.75
2016-04-18T01:05:09.376Z,1013.74
2016-04-18T01:06:09.394Z,1013.78
2016-04-18T01:07:09.428Z,1013.78
2016-04-18T01:08:09.446Z,1013.74
2016-04-18T01:09:09.479Z,1013.79
2016-04-18T01:10:09.498Z,1013.85
2016-04-18T01:11:09.532Z,1013.85
2016-04-18T01:12:09.567Z,1013.89
2016-04-18T01:13:09.584Z,1013.94
2016-04-18T01:14:09.618Z,1013.96
2016-04-18T01:15:09.652Z,1013.93
2016-04-18T01:16:09.670Z,1013.98
2016-04-18T01:17:09.705Z,1013.95
2016-04-18T01:18:09.738Z,1014
2016-04-18T01:19:09.757Z,1013.98
2016-04-18T01:20:09.791Z,1013.98
2016-04-18T01:21:09.808Z,1013.99
2016-04-18T01:22:09.844Z,1013.96
2016-04-18T01:23:09.861Z,1013.94
2016-04-18T01:24:09.894Z,1013.97
2016-04-18T01:25:09.914Z,1013.99
2016-04-18T01:26:09.980Z,1013.98
2016-04-18T01:27:09.965Z,1014.01
2016-04-18T01:28:10.000Z,1014.03
2016-04-18T01:29:10.018Z,1014.05
2016-04-18T01:30:10.068Z,1014.05
2016-04-18T01:31:10.086Z,1014.03
2016-04-18T01:32:10.104Z,1014.05
2016-04-18T01:33:10.138Z,1014.04
2016-04-18T01:34:10.188Z,1014.03
2016-04-18T01:35:10.191Z,1014.03
2016-04-18T01:36:10.256Z,1014.03
2016-04-18T01:37:10.243Z,1014.05
2016-04-18T01:38:10.276Z,1014.07
2016-04-18T01:39:10.295Z,1014.06
2016-04-18T01:40:10.328Z,1014.05
2016-04-18T01:41:10.363Z,1014.1
2016-04-18T01:42:10.381Z,1014.12
2016-04-18T01:43:10.415Z,1014.17
2016-04-18T01:44:10.434Z,1014.18
2016-04-18T01:45:10.468Z,1014.18
2016-04-18T01:46:10.486Z,1014.19
2016-04-18T01:47:10.520Z,1014.21
2016-04-18T01:48:10.553Z,1014.22
2016-04-18T01:49:10.572Z,1014.24
2016-04-18T01:50:10.605Z,1014.24
2016-04-18T01:51:10.624Z,1014.22
2016-04-18T01:52:10.658Z,1014.23
2016-04-18T01:53:10.677Z,1014.21
2016-04-18T01:54:10.804Z,1014.16
2016-04-18T01:55:10.744Z,1014.14
2016-04-18T01:56:10.763Z,1014.2
2016-04-18T01:57:10.797Z,1014.18
2016-04-18T01:58:10.815Z,1014.16
2016-04-18T01:59:10.849Z,1014.18
2016-04-18T02:00:10.882Z,1014.22
2016-04-18T02:01:10.901Z,1014.21
2016-04-18T02:02:10.935Z,1014.23
2016-04-18T02:03:10.953Z,1014.27
2016-04-18T02:04:10.988Z,1014.26
2016-04-18T02:05:11.005Z,1014.23
2016-04-18T02:06:11.039Z,1014.27
2016-04-18T02:07:11.073Z,1014.28
2016-04-18T02:08:11.093Z,1014.31
2016-04-18T02:09:11.126Z,1014.31
2016-04-18T02:10:11.143Z,1014.34
2016-04-18T02:11:11.178Z,1014.36
2016-04-18T02:12:11.212Z,1014.36
2016-04-18T02:13:11.309Z,1014.37
2016-04-18T02:14:11.264Z,1014.32
2016-04-18T02:15:11.282Z,1014.3
2016-04-18T02:16:11.317Z,1014.31
2016-04-18T02:17:11.334Z,1014.32
2016-04-18T02:18:11.369Z,1014.34
2016-04-18T02:19:11.387Z,1014.36
2016-04-18T02:20:11.421Z,1014.29
2016-04-18T02:21:11.470Z,1014.3
2016-04-18T02:22:11.473Z,1014.31
2016-04-18T02:23:11.507Z,1014.24
2016-04-18T02:24:11.650Z,1014.28
2016-04-18T02:25:11.558Z,1014.25
2016-04-18T02:26:11.594Z,1014.23
2016-04-18T02:27:11.611Z,1014.24
2016-04-18T02:28:11.646Z,1014.28
2016-04-18T02:29:11.664Z,1014.33
2016-04-18T02:30:11.697Z,1014.34
2016-04-18T02:31:11.716Z,1014.33
2016-04-18T02:32:11.750Z,1014.34
2016-04-18T02:33:11.768Z,1014.36
2016-04-18T02:34:11.802Z,1014.37
2016-04-18T02:35:11.836Z,1014.39
2016-04-18T02:36:11.870Z,1014.39
2016-04-18T02:37:11.888Z,1014.41
2016-04-18T02:38:11.922Z,1014.45
2016-04-18T02:39:12.004Z,1014.43
2016-04-18T02:40:11.975Z,1014.45
2016-04-18T02:41:11.993Z,1014.54
2016-04-18T02:42:12.027Z,1014.56
2016-04-18T02:43:12.045Z,1014.51
2016-04-18T02:44:12.078Z,1014.57
2016-04-18T02:45:12.112Z,1014.54
2016-04-18T02:46:12.131Z,1014.56
2016-04-18T02:47:12.165Z,1014.62
2016-04-18T02:48:12.183Z,1014.62
2016-04-18T02:49:12.217Z,1014.63
2016-04-18T02:50:12.283Z,1014.65
2016-04-18T02:51:12.270Z,1014.65
2016-04-18T02:52:12.303Z,1014.7
2016-04-18T02:53:12.322Z,1014.67
2016-04-18T02:54:12.356Z,1014.73
2016-04-18T02:55:12.375Z,1014.7
2016-04-18T02:56:12.408Z,1014.76
2016-04-18T02:57:12.442Z,1014.76
2016-04-18T02:58:12.460Z,1014.75
2016-04-18T02:59:12.495Z,1014.77
2016-04-18T03:00:12.512Z,1014.72
2016-04-18T03:01:12.563Z,1014.77
2016-04-18T03:02:12.565Z,1014.78
2016-04-18T03:03:12.599Z,1014.86
2016-04-18T03:04:12.632Z,1014.88
2016-04-18T03:05:12.666Z,1014.91
2016-04-18T03:06:12.685Z,1014.89
2016-04-18T03:07:12.704Z,1014.91
2016-04-18T03:08:12.738Z,1014.92
2016-04-18T03:09:12.835Z,1014.9
2016-04-18T03:10:12.790Z,1014.86
2016-04-18T03:11:12.824Z,1014.88
2016-04-18T03:12:12.857Z,1014.86
2016-04-18T03:13:12.876Z,1014.93
2016-04-18T03:14:12.910Z,1014.93
2016-04-18T03:15:12.929Z,1014.92
2016-04-18T03:16:12.946Z,1014.94
2016-04-18T03:17:12.996Z,1014.91
2016-04-18T03:18:13.015Z,1014.98
2016-04-18T03:19:13.048Z,1014.91
2016-04-18T03:20:13.067Z,1014.86
2016-04-18T03:21:13.100Z,1014.9
2016-04-18T03:22:13.119Z,1014.93
2016-04-18T03:23:13.153Z,1014.91
2016-04-18T03:24:13.172Z,1014.92
2016-04-18T03:25:13.220Z,1014.92
2016-04-18T03:26:13.239Z,1014.93
2016-04-18T03:27:13.257Z,1014.93
2016-04-18T03:28:13.291Z,1014.9
2016-04-18T03:29:13.309Z,1014.9
2016-04-18T03:30:13.343Z,1014.88
2016-04-18T03:31:13.377Z,1014.89
2016-04-18T03:32:13.396Z,1014.96
2016-04-18T03:33:13.414Z,1014.95
2016-04-18T03:34:13.448Z,1014.98
2016-04-18T03:35:13.482Z,1014.94
2016-04-18T03:36:13.499Z,1014.99
2016-04-18T03:37:13.534Z,1014.93
2016-04-18T03:38:13.552Z,1014.94
2016-04-18T03:39:13.743Z,1014.95
2016-04-18T03:40:13.605Z,1014.99
2016-04-18T03:41:13.654Z,1014.96
2016-04-18T03:42:13.673Z,1014.89
2016-04-18T03:43:13.691Z,1014.9
2016-04-18T03:44:13.740Z,1014.91
2016-04-18T03:45:13.759Z,1014.92
2016-04-18T03:46:13.776Z,1014.93
2016-04-18T03:47:13.796Z,1014.9
2016-04-18T03:48:13.845Z,1014.9
2016-04-18T03:49:13.864Z,1014.86
2016-04-18T03:50:13.897Z,1014.88
2016-04-18T03:51:13.915Z,1014.87
2016-04-18T03:52:13.934Z,1014.88
2016-04-18T03:53:13.967Z,1014.87
2016-04-18T03:54:14.002Z,1014.87
2016-04-18T03:55:14.019Z,1014.87
2016-04-18T03:56:14.053Z,1014.94
2016-04-18T03:57:14.072Z,1014.93
2016-04-18T03:58:14.434Z,1014.97
2016-04-18T03:59:14.297Z,1014.96
2016-04-18T04:00:14.455Z,1014.98
2016-04-18T04:01:14.489Z,1015
2016-04-18T04:02:14.430Z,1014.99
2016-04-18T04:03:14.480Z,1014.96
2016-04-18T04:04:14.544Z,1015.01
2016-04-18T04:05:14.516Z,1015.05
2016-04-18T04:06:14.455Z,1015.03
2016-04-18T04:07:14.568Z,1015.05
2016-04-18T04:08:14.446Z,1015.04
2016-04-18T04:09:14.807Z,1015.07
2016-04-18T04:10:14.529Z,1015.1
2016-04-18T04:11:14.641Z,1015.1
2016-04-18T04:12:14.551Z,1015.1
2016-04-18T04:13:14.599Z,1015.11
2016-04-18T04:14:14.727Z,1015.11
2016-04-18T04:15:14.699Z,1015.07
2016-04-18T04:16:14.592Z,1015.09
2016-04-18T04:17:14.673Z,1015.08
2016-04-18T04:18:14.660Z,1015.14
2016-04-18T04:19:15.022Z,1015.18
2016-04-18T04:20:14.697Z,1015.17
2016-04-18T04:21:14.808Z,1015.21
2016-04-18T04:22:14.765Z,1015.13
2016-04-18T04:23:14.892Z,1015.17
2016-04-18T04:24:14.942Z,1015.16
2016-04-18T04:25:14.929Z,1015.14
2016-04-18T04:26:14.884Z,1015.13
2016-04-18T04:27:14.997Z,1015.12
2016-04-18T04:28:14.921Z,1015.15
2016-04-18T04:29:15.190Z,1015.17
2016-04-18T04:30:14.974Z,1015.24
2016-04-18T04:31:15.086Z,1015.22
2016-04-18T04:32:15.041Z,1015.18
2016-04-18T04:33:15.107Z,1015.23
2016-04-18T04:34:15.125Z,1015.23
2016-04-18T04:35:15.158Z,1015.2
2016-04-18T04:36:15.146Z,1015.24
2016-04-18T04:37:15.242Z,1015.23
2016-04-18T04:38:15.245Z,1015.28
2016-04-18T04:39:15.513Z,1015.28
2016-04-18T04:40:15.266Z,1015.28
2016-04-18T04:41:15.363Z,1015.26
2016-04-18T04:42:15.302Z,1015.23
2016-04-18T04:43:15.399Z,1015.22
2016-04-18T04:44:15.354Z,1015.23
2016-04-18T04:45:15.451Z,1015.29
2016-04-18T04:46:15.422Z,1015.28
2016-04-18T04:47:15.533Z,1015.28
2016-04-18T04:48:15.474Z,1015.31
2016-04-18T04:49:15.602Z,1015.36
2016-04-18T04:50:15.527Z,1015.39
2016-04-18T04:51:15.623Z,1015.35
2016-04-18T04:52:15.578Z,1015.36
2016-04-18T04:53:15.675Z,1015.33
2016-04-18T04:54:15.631Z,1015.35
2016-04-18T04:55:15.727Z,1015.36
2016-04-18T04:56:15.699Z,1015.41
2016-04-18T04:57:15.796Z,1015.43
2016-04-18T04:58:15.766Z,1015.42
2016-04-18T04:59:15.863Z,1015.45
2016-04-18T05:00:15.804Z,1015.47
2016-04-18T05:01:15.915Z,1015.49
2016-04-18T05:02:15.855Z,1015.49
2016-04-18T05:03:15.967Z,1015.46
2016-04-18T05:04:15.907Z,1015.47
2016-04-18T05:05:15.988Z,1015.48
2016-04-18T05:06:15.960Z,1015.46
2016-04-18T05:07:16.057Z,1015.45
2016-04-18T05:08:16.028Z,1015.44
2016-04-18T05:09:16.124Z,1015.46
2016-04-18T05:10:16.080Z,1015.51
2016-04-18T05:11:16.145Z,1015.55
2016-04-18T05:12:16.132Z,1015.59
2016-04-18T05:13:16.244Z,1015.57
2016-04-18T05:14:16.184Z,1015.58
2016-04-18T05:15:16.234Z,1015.56
2016-04-18T05:16:16.237Z,1015.56
2016-04-18T05:17:16.255Z,1015.57
2016-04-18T05:18:16.289Z,1015.58
2016-04-18T05:19:16.432Z,1015.6
2016-04-18T05:20:16.341Z,1015.59
2016-04-18T05:21:16.375Z,1015.61
2016-04-18T05:22:16.409Z,1015.62
2016-04-18T05:23:16.443Z,1015.58
2016-04-18T05:24:16.461Z,1015.61
2016-04-18T05:25:16.480Z,1015.57
2016-04-18T05:26:16.513Z,1015.54
2016-04-18T05:27:16.547Z,1015.55
2016-04-18T05:28:16.565Z,1015.57
2016-04-18T05:29:16.677Z,1015.62
2016-04-18T05:30:16.624Z,1015.63
2016-04-18T05:31:16.642Z,1015.54
2016-04-18T05:32:16.677Z,1015.63
2016-04-18T05:33:16.694Z,1015.63
2016-04-18T05:34:16.729Z,1015.63
2016-04-18T05:35:16.746Z,1015.6
2016-04-18T05:36:16.780Z,1015.6
2016-04-18T05:37:16.815Z,1015.62
2016-04-18T05:38:16.849Z,1015.64
2016-04-18T05:39:16.914Z,1015.71
2016-04-18T05:40:16.885Z,1015.77
2016-04-18T05:41:16.919Z,1015.78
2016-04-18T05:42:16.953Z,1015.75
2016-04-18T05:43:16.987Z,1015.87
2016-04-18T05:44:17.020Z,1015.86
2016-04-18T05:45:17.039Z,1015.87
2016-04-18T05:46:17.057Z,1015.8
2016-04-18T05:47:17.091Z,1015.79
2016-04-18T05:48:17.126Z,1015.82
2016-04-18T05:49:17.144Z,1015.86
2016-04-18T05:50:17.162Z,1015.9
2016-04-18T05:51:17.195Z,1015.91
2016-04-18T05:52:17.230Z,1015.93
2016-04-18T05:53:17.280Z,1015.94
2016-04-18T05:54:17.283Z,1015.93
2016-04-18T05:55:17.301Z,1015.96
2016-04-18T05:56:17.335Z,1015.96
2016-04-18T05:57:17.369Z,1015.97
2016-04-18T05:58:17.387Z,1015.95
2016-04-18T05:59:17.421Z,1015.97
2016-04-18T06:00:17.439Z,1015.99
2016-04-18T06:01:17.472Z,1015.95
2016-04-18T06:02:17.507Z,1015.97
2016-04-18T06:03:17.525Z,1015.94
2016-04-18T06:04:17.560Z,1015.96
2016-04-18T06:05:17.578Z,1016
2016-04-18T06:06:17.611Z,1016.01
2016-04-18T06:07:17.630Z,1016.01
2016-04-18T06:08:17.663Z,1016.01
2016-04-18T06:09:17.698Z,1016.02
2016-04-18T06:10:17.731Z,1015.98
2016-04-18T06:11:17.749Z,1016.01
2016-04-18T06:12:17.768Z,1016.02
2016-04-18T06:13:17.802Z,1016.03
2016-04-18T06:14:17.837Z,1016.04
2016-04-18T06:15:17.854Z,1016.03
2016-04-18T06:16:17.873Z,1016.04
2016-04-18T06:17:17.906Z,1016.07
2016-04-18T06:18:17.941Z,1016.05
2016-04-18T06:19:17.959Z,1016.06
2016-04-18T06:20:17.993Z,1016.11
2016-04-18T06:21:18.026Z,1016.07
2016-04-18T06:22:18.045Z,1016.12
2016-04-18T06:23:18.078Z,1016.13
2016-04-18T06:24:18.097Z,1016.12
2016-04-18T06:25:18.131Z,1016.16
2016-04-18T06:26:18.150Z,1016.2
2016-04-18T06:27:18.184Z,1016.18
2016-04-18T06:28:18.202Z,1016.18
2016-04-18T06:29:18.236Z,1016.2
2016-04-18T06:30:18.301Z,1016.23
2016-04-18T06:31:18.288Z,1016.24
2016-04-18T06:32:18.322Z,1016.22
2016-04-18T06:33:18.340Z,1016.27
2016-04-18T06:34:18.375Z,1016.19
2016-04-18T06:35:18.393Z,1016.24
2016-04-18T06:36:18.427Z,1016.19
2016-04-18T06:37:18.461Z,1016.24
2016-04-18T06:38:18.494Z,1016.2
2016-04-18T06:39:18.512Z,1016.17
2016-04-18T06:40:18.532Z,1016.2
2016-04-18T06:41:18.565Z,1016.13
2016-04-18T06:42:18.599Z,1016.15
2016-04-18T06:43:18.618Z,1016.18
2016-04-18T06:44:18.651Z,1016.18
2016-04-18T06:45:18.670Z,1016.18
2016-04-18T06:46:18.703Z,1016.18
2016-04-18T06:47:18.737Z,1016.2
2016-04-18T06:48:18.756Z,1016.21
2016-04-18T06:49:18.790Z,1016.22
2016-04-18T06:50:18.809Z,1016.24
2016-04-18T06:51:18.842Z,1016.18
2016-04-18T06:52:18.876Z,1016.16
2016-04-18T06:53:18.894Z,1016.17
2016-04-18T06:54:18.912Z,1016.2
2016-04-18T06:55:18.947Z,1016.15
2016-04-18T06:56:18.981Z,1016.12
2016-04-18T06:57:18.998Z,1016.18
2016-04-18T06:58:19.033Z,1016.16
2016-04-18T06:59:19.050Z,1016.16
2016-04-18T07:00:19.085Z,1016.17
2016-04-18T07:01:19.118Z,1016.17
2016-04-18T07:02:19.136Z,1016.17
2016-04-18T07:03:19.186Z,1016.22
2016-04-18T07:04:19.235Z,1016.26
2016-04-18T07:05:19.223Z,1016.24
2016-04-18T07:06:19.257Z,1016.2
2016-04-18T07:07:19.291Z,1016.18
2016-04-18T07:08:19.310Z,1016.14
2016-04-18T07:09:19.328Z,1016.18
2016-04-18T07:10:19.362Z,1016.16
2016-04-18T07:11:19.396Z,1016.16
2016-04-18T07:12:19.413Z,1016.13
2016-04-18T07:13:19.448Z,1016.18
2016-04-18T07:14:19.465Z,1016.21
2016-04-18T07:15:19.501Z,1016.18
2016-04-18T07:16:19.518Z,1016.22
2016-04-18T07:17:19.552Z,1016.25
2016-04-18T07:18:19.586Z,1016.22
2016-04-18T07:19:19.604Z,1016.23
2016-04-18T07:20:19.638Z,1016.27
2016-04-18T07:21:19.664Z,1016.31
2016-04-18T07:22:19.682Z,1016.24
2016-04-18T07:23:19.716Z,1016.27
2016-04-18T07:24:19.750Z,1016.28
2016-04-18T07:25:19.769Z,1016.31
2016-04-18T07:26:19.802Z,1016.3
2016-04-18T07:27:19.821Z,1016.27
2016-04-18T07:28:19.917Z,1016.39
2016-04-18T07:29:19.888Z,1016.39
2016-04-18T07:30:19.907Z,1016.4
2016-04-18T07:31:19.941Z,1016.44
2016-04-18T07:32:19.959Z,1016.44
2016-04-18T07:33:19.993Z,1016.46
2016-04-18T07:34:20.011Z,1016.48
2016-04-18T07:35:20.045Z,1016.48
2016-04-18T07:36:20.079Z,1016.53
2016-04-18T07:37:20.097Z,1016.47
2016-04-18T07:38:20.131Z,1016.49
2016-04-18T07:39:20.165Z,1016.54
2016-04-18T07:40:20.183Z,1016.47
2016-04-18T07:41:20.217Z,1016.53
2016-04-18T07:42:20.236Z,1016.51
2016-04-18T07:43:20.284Z,1016.51
2016-04-18T07:44:20.303Z,1016.5
2016-04-18T07:45:20.322Z,1016.52
2016-04-18T07:46:20.339Z,1016.55
2016-04-18T07:47:20.374Z,1016.62
2016-04-18T07:48:20.408Z,1016.52
2016-04-18T07:49:20.426Z,1016.51
2016-04-18T07:50:20.461Z,1016.55
2016-04-18T07:51:20.526Z,1016.56
2016-04-18T07:52:20.559Z,1016.57
2016-04-18T07:53:20.547Z,1016.55
2016-04-18T07:54:20.580Z,1016.51
2016-04-18T07:55:20.599Z,1016.55
2016-04-18T07:56:20.616Z,1016.55
2016-04-18T07:57:20.651Z,1016.54
2016-04-18T07:58:20.669Z,1016.55
2016-04-18T07:59:20.703Z,1016.52
2016-04-18T08:00:20.721Z,1016.55
2016-04-18T08:01:20.755Z,1016.6
2016-04-18T08:02:20.789Z,1016.59
2016-04-18T08:03:20.808Z,1016.53
2016-04-18T08:04:20.841Z,1016.54
2016-04-18T08:05:20.891Z,1016.54
2016-04-18T08:06:20.893Z,1016.53
2016-04-18T08:07:20.928Z,1016.56
2016-04-18T08:08:20.946Z,1016.53
2016-04-18T08:09:20.980Z,1016.59
2016-04-18T08:10:21.014Z,1016.46
2016-04-18T08:11:21.032Z,1016.55
2016-04-18T08:12:21.066Z,1016.56
2016-04-18T08:13:21.100Z,1016.57
2016-04-18T08:14:21.150Z,1016.61
2016-04-18T08:15:21.152Z,1016.6
2016-04-18T08:16:21.170Z,1016.53
2016-04-18T08:17:21.205Z,1016.61
2016-04-18T08:18:21.223Z,1016.59
2016-04-18T08:19:21.256Z,1016.6
2016-04-18T08:20:21.276Z,1016.58
2016-04-18T08:21:21.309Z,1016.6
2016-04-18T08:22:21.344Z,1016.62
2016-04-18T08:23:21.362Z,1016.61
2016-04-18T08:24:21.396Z,1016.64
2016-04-18T08:25:21.539Z,1016.56
2016-04-18T08:26:21.447Z,1016.61
2016-04-18T08:27:21.482Z,1016.64
2016-04-18T08:28:21.499Z,1016.65
2016-04-18T08:29:21.533Z,1016.74
2016-04-18T08:30:21.552Z,1016.81
2016-04-18T08:31:21.586Z,1016.72
2016-04-18T08:32:21.605Z,1016.74
2016-04-18T08:33:21.639Z,1016.77
2016-04-18T08:34:21.657Z,1016.71
2016-04-18T08:35:21.690Z,1016.65
2016-04-18T08:36:21.725Z,1016.67
2016-04-18T08:37:21.743Z,1016.67
2016-04-18T08:38:21.777Z,1016.68
2016-04-18T08:39:21.827Z,1016.64
2016-04-18T08:40:21.829Z,1016.66
2016-04-18T08:41:21.863Z,1016.64
2016-04-18T08:42:21.881Z,1016.58
2016-04-18T08:43:21.900Z,1016.61
2016-04-18T08:44:21.934Z,1016.61
2016-04-18T08:45:21.968Z,1016.59
2016-04-18T08:46:21.986Z,1016.52
2016-04-18T08:47:22.020Z,1016.59
2016-04-18T08:48:22.053Z,1016.55
2016-04-18T08:49:22.072Z,1016.58
2016-04-18T08:50:22.106Z,1016.58
2016-04-18T08:51:22.125Z,1016.54
2016-04-18T08:52:22.159Z,1016.55
2016-04-18T08:53:22.177Z,1016.54
2016-04-18T08:54:22.195Z,1016.58
2016-04-18T08:55:22.245Z,1016.5
2016-04-18T08:56:22.263Z,1016.54
2016-04-18T08:57:22.296Z,1016.57
2016-04-18T08:58:22.315Z,1016.61
2016-04-18T08:59:22.349Z,1016.58
2016-04-18T09:00:22.366Z,1016.61
2016-04-18T09:01:22.433Z,1016.64
2016-04-18T09:02:22.419Z,1016.63
2016-04-18T09:03:22.454Z,1016.65
2016-04-18T09:04:22.487Z,1016.63
2016-04-18T09:05:22.506Z,1016.62
2016-04-18T09:06:22.524Z,1016.56
2016-04-18T09:07:22.558Z,1016.52
2016-04-18T09:08:22.593Z,1016.58
2016-04-18T09:09:22.627Z,1016.53
2016-04-18T09:10:22.659Z,1016.53
2016-04-18T09:11:22.662Z,1016.52
2016-04-18T09:12:22.697Z,1016.51
2016-04-18T09:13:22.730Z,1016.49
2016-04-18T09:14:22.749Z,1016.45
2016-04-18T09:15:22.782Z,1016.51
2016-04-18T09:16:22.801Z,1016.55
2016-04-18T09:17:22.834Z,1016.47
2016-04-18T09:18:22.869Z,1016.5
2016-04-18T09:19:22.887Z,1016.5
2016-04-18T09:20:22.921Z,1016.46
2016-04-18T09:21:22.964Z,1016.49
2016-04-18T09:22:23.040Z,1016.49
2016-04-18T09:23:23.101Z,1016.49
2016-04-18T09:24:23.177Z,1016.45
2016-04-18T09:25:23.251Z,1016.48
2016-04-18T09:26:23.296Z,1016.46
2016-04-18T09:27:23.361Z,1016.5
2016-04-18T09:28:23.380Z,1016.42
2016-04-18T09:29:23.428Z,1016.39
2016-04-18T09:30:23.478Z,1016.42
2016-04-18T09:31:23.506Z,1016.39
2016-04-18T09:32:23.545Z,1016.47
2016-04-18T09:33:23.568Z,1016.37
2016-04-18T09:34:23.607Z,1016.42
2016-04-18T09:35:23.632Z,1016.44
2016-04-18T09:36:23.669Z,1016.38
2016-04-18T09:37:23.689Z,1016.37
2016-04-18T09:38:23.726Z,1016.38
2016-04-18T09:39:23.760Z,1016.33
2016-04-18T09:40:23.875Z,1016.38
2016-04-18T09:41:23.800Z,1016.36
2016-04-18T09:42:23.836Z,1016.41
2016-04-18T09:43:23.870Z,1016.34
2016-04-18T09:44:23.904Z,1016.3
2016-04-18T09:45:23.924Z,1016.29
2016-04-18T09:46:23.942Z,1016.28
2016-04-18T09:47:23.977Z,1016.37
2016-04-18T09:48:24.011Z,1016.33
2016-04-18T09:49:24.044Z,1016.4
2016-04-18T09:50:24.077Z,1016.4
2016-04-18T09:51:24.080Z,1016.33
2016-04-18T09:52:24.130Z,1016.3
2016-04-18T09:53:24.148Z,1016.31
2016-04-18T09:54:24.213Z,1016.31
2016-04-18T09:55:24.295Z,1016.28
2016-04-18T09:56:24.219Z,1016.19
2016-04-18T09:57:24.254Z,1016.2
2016-04-18T09:58:24.271Z,1016.18
2016-04-18T09:59:24.306Z,1016.25
2016-04-18T10:00:24.340Z,1016.16
2016-04-18T10:01:24.373Z,1016.17
2016-04-18T10:02:24.392Z,1016.14
2016-04-18T10:03:24.425Z,1016.17
2016-04-18T10:04:24.459Z,1016.2
2016-04-18T10:05:24.493Z,1016.22
2016-04-18T10:06:24.496Z,1016.24
2016-04-18T10:07:24.531Z,1016.31
2016-04-18T10:08:24.548Z,1016.13
2016-04-18T10:09:24.583Z,1016.17
2016-04-18T10:10:24.617Z,1016.12
2016-04-18T10:11:24.634Z,1016.15
2016-04-18T10:12:24.669Z,1016.16
2016-04-18T10:13:24.690Z,1016.2
2016-04-18T10:14:24.708Z,1016.16
2016-04-18T10:15:24.789Z,1016.17
2016-04-18T10:16:24.776Z,1016.15
2016-04-18T10:17:24.795Z,1016.13
2016-04-18T10:18:24.828Z,1016.11
2016-04-18T10:19:24.862Z,1016.1
2016-04-18T10:20:24.880Z,1016.08
2016-04-18T10:21:24.914Z,1016.12
2016-04-18T10:22:24.933Z,1016.04
2016-04-18T10:23:24.966Z,1016.06
2016-04-18T10:24:24.985Z,1016.07
2016-04-18T10:25:25.019Z,1016.14
2016-04-18T10:26:25.052Z,1016.16
2016-04-18T10:27:25.071Z,1016.1
2016-04-18T10:28:28.762Z,1016.06
2016-04-18T10:29:25.124Z,1016.08
2016-04-18T10:30:25.157Z,1016.09
2016-04-18T10:31:25.191Z,1016.03
2016-04-18T10:32:25.209Z,1016
2016-04-18T10:33:25.243Z,1016.06
2016-04-18T10:34:25.278Z,1015.95
2016-04-18T10:35:25.296Z,1016.03
2016-04-18T10:36:25.330Z,1015.99
2016-04-18T10:37:25.348Z,1016.02
2016-04-18T10:38:25.367Z,1016.02
2016-04-18T10:39:25.400Z,1015.99
2016-04-18T10:40:25.435Z,1016.03
2016-04-18T10:41:25.452Z,1016.02
2016-04-18T10:42:25.486Z,1015.99
2016-04-18T10:43:25.505Z,1016.04
2016-04-18T10:44:25.539Z,1016.08
2016-04-18T10:45:25.588Z,1015.95
2016-04-18T10:46:25.607Z,1015.99
2016-04-18T10:47:25.625Z,1015.96
2016-04-18T10:48:25.644Z,1016.03
2016-04-18T10:49:25.678Z,1016.03
2016-04-18T10:50:25.728Z,1016.03
2016-04-18T10:51:25.729Z,1015.99
2016-04-18T10:52:25.747Z,1015.93
2016-04-18T10:53:25.782Z,1015.95
2016-04-18T10:54:25.800Z,1015.95
2016-04-18T10:55:25.834Z,1015.97
2016-04-18T10:56:29.805Z,1015.93
2016-04-18T10:57:25.886Z,1015.92
2016-04-18T10:58:25.920Z,1015.92
2016-04-18T10:59:25.939Z,1015.91
2016-04-18T11:00:25.988Z,1015.93
2016-04-18T11:01:26.038Z,1015.88
2016-04-18T11:02:26.024Z,1015.84
2016-04-18T11:03:26.059Z,1015.85
2016-04-18T11:04:26.092Z,1015.85
2016-04-18T11:05:26.111Z,1015.85
2016-04-18T11:06:26.129Z,1015.91
2016-04-18T11:07:26.162Z,1015.88
2016-04-18T11:08:26.181Z,1015.92
2016-04-18T11:09:26.215Z,1015.89
2016-04-18T11:10:26.250Z,1015.93
2016-04-18T11:11:26.298Z,1015.8
2016-04-18T11:12:26.301Z,1015.83
2016-04-18T11:13:26.320Z,1015.78
2016-04-18T11:14:26.353Z,1015.78
2016-04-18T11:15:26.389Z,1015.8
2016-04-18T11:16:26.406Z,1015.8
2016-04-18T11:17:26.440Z,1015.84
2016-04-18T11:18:26.458Z,1015.78
2016-04-18T11:19:26.492Z,1015.81
2016-04-18T11:20:26.511Z,1015.79
2016-04-18T11:21:26.544Z,1015.79
2016-04-18T11:22:26.579Z,1015.86
2016-04-18T11:23:26.597Z,1015.81
2016-04-18T11:24:26.631Z,1015.8
2016-04-18T11:25:26.649Z,1015.76
2016-04-18T11:26:26.683Z,1015.74
2016-04-18T11:27:26.701Z,1015.74
2016-04-18T11:28:26.736Z,1015.76
2016-04-18T11:29:26.754Z,1015.77
2016-04-18T11:30:26.787Z,1015.82
2016-04-18T11:31:26.821Z,1015.81
2016-04-18T11:32:26.840Z,1015.84
2016-04-18T11:33:26.874Z,1015.75
2016-04-18T11:34:26.893Z,1015.72
2016-04-18T11:35:26.926Z,1015.75
2016-04-18T11:36:26.959Z,1015.69
2016-04-18T11:37:26.978Z,1015.72
2016-04-18T11:38:27.012Z,1015.72
2016-04-18T11:39:27.031Z,1015.71
2016-04-18T11:40:27.065Z,1015.66
2016-04-18T11:41:27.098Z,1015.63
2016-04-18T11:42:27.117Z,1015.6
2016-04-18T11:43:27.150Z,1015.67
2016-04-18T11:44:27.184Z,1015.66
2016-04-18T11:45:27.203Z,1015.55
2016-04-18T11:46:27.222Z,1015.58
2016-04-18T11:47:27.317Z,1015.54
2016-04-18T11:48:27.289Z,1015.54
2016-04-18T11:49:27.323Z,1015.53
2016-04-18T11:50:27.341Z,1015.54
2016-04-18T11:51:27.375Z,1015.61
2016-04-18T11:52:27.394Z,1015.64
2016-04-18T11:53:27.428Z,1015.64
2016-04-18T11:54:27.447Z,1015.62
